sensor_id;sensor_type;location;lat;lon;timestamp;pressure;altitude;pressure_sealevel;temperature;humidity
79075;BME280;68476;42.710;23.388;2023-06-22T00:01:54;96002.72;;;16.68;77.39
79075;BME280;68476;42.710;23.388;2023-06-22T00:04:19;96000.78;;;16.69;77.70
79075;BME280;68476;42.710;23.388;2023-06-22T00:06:45;95995.72;;;16.60;77.99
79075;BME280;68476;42.710;23.388;2023-06-22T00:09:10;95997.13;;;16.63;77.38
79075;BME280;68476;42.710;23.388;2023-06-22T00:11:39;95992.50;;;16.69;77.02
79075;BME280;68476;42.710;23.388;2023-06-22T00:14:04;95994.44;;;16.68;76.63
79075;BME280;68476;42.710;23.388;2023-06-22T00:16:32;95989.75;;;16.69;76.57
79075;BME280;68476;42.710;23.388;2023-06-22T00:18:58;95990.91;;;16.73;76.51
79075;BME280;68476;42.710;23.388;2023-06-22T00:21:26;95985.16;;;16.74;76.67
79075;BME280;68476;42.710;23.388;2023-06-22T00:23:51;95991.75;;;16.73;76.55
79075;BME280;68476;42.710;23.388;2023-06-22T00:26:17;95980.94;;;16.67;77.17
79075;BME280;68476;42.710;23.388;2023-06-22T00:28:42;95975.06;;;16.58;77.89
79075;BME280;68476;42.710;23.388;2023-06-22T00:31:08;95976.72;;;16.59;77.52
79075;BME280;68476;42.710;23.388;2023-06-22T00:33:33;95971.13;;;16.76;76.78
79075;BME280;68476;42.710;23.388;2023-06-22T00:35:59;95976.44;;;16.83;76.32
79075;BME280;68476;42.710;23.388;2023-06-22T00:38:24;95981.38;;;16.81;76.71
79075;BME280;68476;42.710;23.388;2023-06-22T00:40:49;95981.31;;;16.75;76.66
79075;BME280;68476;42.710;23.388;2023-06-22T00:43:15;95967.81;;;16.74;76.95
79075;BME280;68476;42.710;23.388;2023-06-22T00:45:40;95966.53;;;16.82;76.56
79075;BME280;68476;42.710;23.388;2023-06-22T00:48:07;95965.09;;;16.79;76.97
79075;BME280;68476;42.710;23.388;2023-06-22T00:50:33;95975.31;;;16.56;78.00
79075;BME280;68476;42.710;23.388;2023-06-22T00:53:07;95977.75;;;16.53;77.63
79075;BME280;68476;42.710;23.388;2023-06-22T00:55:44;95987.97;;;16.35;78.24
79075;BME280;68476;42.710;23.388;2023-06-22T00:58:11;95978.25;;;16.05;79.71
79075;BME280;68476;42.710;23.388;2023-06-22T01:00:37;95974.34;;;15.84;80.69
79075;BME280;68476;42.710;23.388;2023-06-22T01:03:03;95984.19;;;15.80;81.27
79075;BME280;68476;42.710;23.388;2023-06-22T01:05:31;95988.25;;;15.94;80.34
79075;BME280;68476;42.710;23.388;2023-06-22T01:08:23;95989.25;;;16.05;80.09
79075;BME280;68476;42.710;23.388;2023-06-22T01:13:41;95996.63;;;16.22;78.73
79075;BME280;68476;42.710;23.388;2023-06-22T01:18:47;95999.78;;;15.91;80.26
79075;BME280;68476;42.710;23.388;2023-06-22T01:21:17;95998.13;;;15.56;82.38
79075;BME280;68476;42.710;23.388;2023-06-22T01:29:04;95987.34;;;15.89;80.86
79075;BME280;68476;42.710;23.388;2023-06-22T01:31:32;95999.50;;;15.76;81.45
79075;BME280;68476;42.710;23.388;2023-06-22T01:34:03;95997.09;;;15.62;82.60
79075;BME280;68476;42.710;23.388;2023-06-22T01:36:30;95994.19;;;15.35;83.38
79075;BME280;68476;42.710;23.388;2023-06-22T01:38:57;96003.19;;;15.47;82.91
79075;BME280;68476;42.710;23.388;2023-06-22T01:41:25;96006.09;;;15.57;82.06
79075;BME280;68476;42.710;23.388;2023-06-22T01:43:52;96007.91;;;15.69;82.47
79075;BME280;68476;42.710;23.388;2023-06-22T01:46:19;96007.91;;;15.69;81.86
79075;BME280;68476;42.710;23.388;2023-06-22T01:48:46;96001.66;;;15.74;82.36
79075;BME280;68476;42.710;23.388;2023-06-22T01:51:13;96005.28;;;15.74;82.82
79075;BME280;68476;42.710;23.388;2023-06-22T01:53:38;96008.94;;;15.80;81.92
79075;BME280;68476;42.710;23.388;2023-06-22T01:56:04;96015.72;;;15.77;82.33
79075;BME280;68476;42.710;23.388;2023-06-22T01:58:31;96018.75;;;15.76;82.31
79075;BME280;68476;42.710;23.388;2023-06-22T02:01:11;96011.25;;;15.71;82.34
79075;BME280;68476;42.710;23.388;2023-06-22T02:03:49;96024.66;;;15.67;82.78
79075;BME280;68476;42.710;23.388;2023-06-22T02:06:31;96015.91;;;15.70;82.59
79075;BME280;68476;42.710;23.388;2023-06-22T02:09:02;96027.75;;;15.71;82.40
79075;BME280;68476;42.710;23.388;2023-06-22T02:11:31;96028.41;;;15.78;81.61
79075;BME280;68476;42.710;23.388;2023-06-22T02:13:58;96023.66;;;15.74;82.25
79075;BME280;68476;42.710;23.388;2023-06-22T02:16:24;96019.75;;;15.69;82.62
79075;BME280;68476;42.710;23.388;2023-06-22T02:18:51;96021.75;;;15.74;81.92
79075;BME280;68476;42.710;23.388;2023-06-22T02:21:20;96017.06;;;15.75;81.05
79075;BME280;68476;42.710;23.388;2023-06-22T02:23:46;96021.75;;;15.74;80.90
79075;BME280;68476;42.710;23.388;2023-06-22T02:26:12;96016.00;;;15.76;81.01
79075;BME280;68476;42.710;23.388;2023-06-22T02:28:38;96017.25;;;15.68;82.06
79075;BME280;68476;42.710;23.388;2023-06-22T02:31:03;96011.25;;;15.71;81.94
79075;BME280;68476;42.710;23.388;2023-06-22T02:33:29;96002.75;;;15.72;81.76
79075;BME280;68476;42.710;23.388;2023-06-22T02:35:54;96006.03;;;15.69;81.61
79075;BME280;68476;42.710;23.388;2023-06-22T02:38:20;96013.34;;;15.64;82.08
79075;BME280;68476;42.710;23.388;2023-06-22T02:40:46;96018.75;;;15.59;81.72
79075;BME280;68476;42.710;23.388;2023-06-22T02:43:11;96006.44;;;15.61;81.90
79075;BME280;68476;42.710;23.388;2023-06-22T02:45:37;96008.25;;;15.55;81.71
79075;BME280;68476;42.710;23.388;2023-06-22T02:48:02;96016.75;;;15.54;81.69
79075;BME280;68476;42.710;23.388;2023-06-22T02:50:28;96014.75;;;15.49;82.16
79075;BME280;68476;42.710;23.388;2023-06-22T02:52:53;96027.16;;;15.35;82.62
79075;BME280;68476;42.710;23.388;2023-06-22T02:55:19;96021.16;;;15.38;82.27
79075;BME280;68476;42.710;23.388;2023-06-22T02:57:44;96025.75;;;15.32;82.20
79075;BME280;68476;42.710;23.388;2023-06-22T03:00:12;96020.84;;;15.34;82.35
79075;BME280;68476;42.710;23.388;2023-06-22T03:02:47;96035.38;;;15.35;83.12
79075;BME280;68476;42.710;23.388;2023-06-22T03:05:14;96029.22;;;15.28;82.98
79075;BME280;68476;42.710;23.388;2023-06-22T03:07:44;96022.28;;;15.08;83.92
79075;BME280;68476;42.710;23.388;2023-06-22T03:10:10;96025.72;;;15.15;83.39
79075;BME280;68476;42.710;23.388;2023-06-22T03:12:37;96031.69;;;15.12;83.20
79075;BME280;68476;42.710;23.388;2023-06-22T03:15:07;96035.06;;;15.31;82.53
79075;BME280;68476;42.710;23.388;2023-06-22T03:17:34;96039.63;;;15.25;83.58
79075;BME280;68476;42.710;23.388;2023-06-22T03:20:01;96043.19;;;15.26;83.52
79075;BME280;68476;42.710;23.388;2023-06-22T03:22:26;96039.53;;;15.37;82.64
79075;BME280;68476;42.710;23.388;2023-06-22T03:24:52;96049.00;;;15.30;82.84
79075;BME280;68476;42.710;23.388;2023-06-22T03:27:17;96055.69;;;15.34;83.92
79075;BME280;68476;42.710;23.388;2023-06-22T03:29:43;96055.94;;;15.32;84.72
79075;BME280;68476;42.710;23.388;2023-06-22T03:32:09;96049.22;;;15.40;83.93
79075;BME280;68476;42.710;23.388;2023-06-22T03:34:35;96049.22;;;15.40;84.25
79075;BME280;68476;42.710;23.388;2023-06-22T03:37:03;96050.91;;;15.58;84.05
79075;BME280;68476;42.710;23.388;2023-06-22T03:39:28;96044.81;;;15.73;82.65
79075;BME280;68476;42.710;23.388;2023-06-22T03:41:54;96058.22;;;15.69;83.52
79075;BME280;68476;42.710;23.388;2023-06-22T03:44:19;96070.94;;;15.59;84.11
79075;BME280;68476;42.710;23.388;2023-06-22T03:46:44;96064.84;;;15.56;84.11
79075;BME280;68476;42.710;23.388;2023-06-22T03:49:10;96064.19;;;15.49;84.39
79075;BME280;68476;42.710;23.388;2023-06-22T03:51:35;96059.38;;;15.56;83.63
79075;BME280;68476;42.710;23.388;2023-06-22T03:54:01;96067.44;;;15.63;82.73
79075;BME280;68476;42.710;23.388;2023-06-22T03:56:26;96075.09;;;15.61;83.63
79075;BME280;68476;42.710;23.388;2023-06-22T03:58:51;96083.75;;;15.53;83.39
79075;BME280;68476;42.710;23.388;2023-06-22T04:01:17;96074.34;;;15.49;82.84
79075;BME280;68476;42.710;23.388;2023-06-22T04:03:42;96079.25;;;15.47;82.61
79075;BME280;68476;42.710;23.388;2023-06-22T04:06:08;96080.56;;;15.44;82.17
79075;BME280;68476;42.710;23.388;2023-06-22T04:08:33;96078.31;;;15.41;81.94
79075;BME280;68476;42.710;23.388;2023-06-22T04:10:59;96076.84;;;15.50;82.28
79075;BME280;68476;42.710;23.388;2023-06-22T04:13:24;96070.19;;;15.63;81.04
79075;BME280;68476;42.710;23.388;2023-06-22T04:15:50;96073.03;;;15.68;81.00
79075;BME280;68476;42.710;23.388;2023-06-22T04:18:15;96068.72;;;15.90;80.35
79075;BME280;68476;42.710;23.388;2023-06-22T04:20:40;96060.06;;;16.15;79.22
79075;BME280;68476;42.710;23.388;2023-06-22T04:23:06;96054.28;;;16.16;79.00
79075;BME280;68476;42.710;23.388;2023-06-22T04:25:31;96052.84;;;16.31;78.60
79075;BME280;68476;42.710;23.388;2023-06-22T04:27:57;96050.69;;;16.33;78.17
79075;BME280;68476;42.710;23.388;2023-06-22T04:30:22;96043.84;;;16.58;77.35
79075;BME280;68476;42.710;23.388;2023-06-22T04:32:47;96049.09;;;16.59;76.85
79075;BME280;68476;42.710;23.388;2023-06-22T04:35:21;96045.00;;;16.84;76.12
79075;BME280;68476;42.710;23.388;2023-06-22T04:37:47;96041.38;;;16.84;76.80
79075;BME280;68476;42.710;23.388;2023-06-22T04:40:15;96039.34;;;17.18;75.80
79075;BME280;68476;42.710;23.388;2023-06-22T04:42:40;96035.22;;;17.21;76.19
79075;BME280;68476;42.710;23.388;2023-06-22T04:45:06;96045.72;;;17.24;75.12
79075;BME280;68476;42.710;23.388;2023-06-22T04:47:31;96049.31;;;17.52;74.92
79075;BME280;68476;42.710;23.388;2023-06-22T04:49:57;96053.09;;;17.78;74.54
79075;BME280;68476;42.710;23.388;2023-06-22T04:52:22;96064.44;;;17.82;73.30
79075;BME280;68476;42.710;23.388;2023-06-22T04:54:47;96073.00;;;17.85;73.75
79075;BME280;68476;42.710;23.388;2023-06-22T04:57:20;96079.94;;;17.61;73.53
79075;BME280;68476;42.710;23.388;2023-06-22T04:59:46;96075.72;;;17.48;73.93
79075;BME280;68476;42.710;23.388;2023-06-22T05:02:11;96073.78;;;17.76;74.19
79075;BME280;68476;42.710;23.388;2023-06-22T05:04:37;96071.22;;;18.01;73.03
79075;BME280;68476;42.710;23.388;2023-06-22T05:07:04;96069.44;;;17.90;72.48
79075;BME280;68476;42.710;23.388;2023-06-22T05:09:30;96066.63;;;18.12;71.17
79075;BME280;68476;42.710;23.388;2023-06-22T05:11:55;96060.06;;;17.86;72.22
79075;BME280;68476;42.710;23.388;2023-06-22T05:14:24;96059.50;;;17.89;72.88
79075;BME280;68476;42.710;23.388;2023-06-22T05:16:50;96067.28;;;18.30;71.99
79075;BME280;68476;42.710;23.388;2023-06-22T05:19:17;96068.25;;;18.51;70.27
79075;BME280;68476;42.710;23.388;2023-06-22T05:21:42;96069.69;;;18.64;70.04
79075;BME280;68476;42.710;23.388;2023-06-22T05:24:08;96074.41;;;18.74;70.46
79075;BME280;68476;42.710;23.388;2023-06-22T05:26:34;96071.56;;;18.58;70.78
79075;BME280;68476;42.710;23.388;2023-06-22T05:29:00;96080.53;;;18.81;70.47
79075;BME280;68476;42.710;23.388;2023-06-22T05:31:26;96080.50;;;18.76;70.89
79075;BME280;68476;42.710;23.388;2023-06-22T05:33:53;96071.41;;;18.75;70.88
79075;BME280;68476;42.710;23.388;2023-06-22T05:36:19;96080.41;;;19.14;69.94
79075;BME280;68476;42.710;23.388;2023-06-22T05:38:45;96086.03;;;19.50;68.66
79075;BME280;68476;42.710;23.388;2023-06-22T05:41:11;96089.56;;;19.30;68.89
79075;BME280;68476;42.710;23.388;2023-06-22T05:43:37;96086.00;;;19.39;67.80
79075;BME280;68476;42.710;23.388;2023-06-22T05:46:03;96088.81;;;19.55;68.19
79075;BME280;68476;42.710;23.388;2023-06-22T05:48:29;96092.47;;;19.92;66.85
79075;BME280;68476;42.710;23.388;2023-06-22T05:50:54;96087.44;;;19.73;67.55
79075;BME280;68476;42.710;23.388;2023-06-22T05:53:20;96093.50;;;19.60;68.07
79075;BME280;68476;42.710;23.388;2023-06-22T05:55:46;96084.16;;;19.92;67.53
79075;BME280;68476;42.710;23.388;2023-06-22T05:58:11;96084.16;;;19.92;67.50
79075;BME280;68476;42.710;23.388;2023-06-22T06:00:39;96081.97;;;20.09;67.03
79075;BME280;68476;42.710;23.388;2023-06-22T06:03:05;96078.88;;;20.47;66.68
79075;BME280;68476;42.710;23.388;2023-06-22T06:05:31;96075.19;;;20.72;64.49
79075;BME280;68476;42.710;23.388;2023-06-22T06:07:58;96075.22;;;20.62;63.96
79075;BME280;68476;42.710;23.388;2023-06-22T06:10:24;96076.31;;;20.61;63.59
79075;BME280;68476;42.710;23.388;2023-06-22T06:12:50;96072.91;;;21.00;62.33
79075;BME280;68476;42.710;23.388;2023-06-22T06:15:15;96069.47;;;21.24;61.84
79075;BME280;68476;42.710;23.388;2023-06-22T06:17:48;96062.63;;;21.56;60.77
79075;BME280;68476;42.710;23.388;2023-06-22T06:20:17;96068.22;;;21.46;61.25
79075;BME280;68476;42.710;23.388;2023-06-22T06:22:43;96069.41;;;21.39;60.52
79075;BME280;68476;42.710;23.388;2023-06-22T06:25:08;96073.72;;;21.56;60.17
79075;BME280;68476;42.710;23.388;2023-06-22T06:27:34;96061.47;;;21.67;59.97
79075;BME280;68476;42.710;23.388;2023-06-22T06:29:59;96054.22;;;21.72;60.04
79075;BME280;68476;42.710;23.388;2023-06-22T06:32:25;96062.50;;;22.11;58.40
79075;BME280;68476;42.710;23.388;2023-06-22T06:34:50;96065.97;;;22.27;59.08
79075;BME280;68476;42.710;23.388;2023-06-22T06:37:16;96068.63;;;22.08;57.94
79075;BME280;68476;42.710;23.388;2023-06-22T06:39:44;96059.19;;;22.39;56.53
79075;BME280;68476;42.710;23.388;2023-06-22T06:42:09;96061.78;;;22.30;56.32
79075;BME280;68476;42.710;23.388;2023-06-22T06:44:36;96058.97;;;22.65;56.38
79075;BME280;68476;42.710;23.388;2023-06-22T06:47:03;96055.81;;;22.96;56.27
79075;BME280;68476;42.710;23.388;2023-06-22T06:49:29;96050.88;;;23.12;54.96
79075;BME280;68476;42.710;23.388;2023-06-22T06:51:54;96038.03;;;23.21;53.08
79075;BME280;68476;42.710;23.388;2023-06-22T06:54:21;96031.78;;;23.48;53.81
79075;BME280;68476;42.710;23.388;2023-06-22T06:56:47;96026.13;;;23.34;54.48
79075;BME280;68476;42.710;23.388;2023-06-22T06:59:14;96033.72;;;23.48;54.46
79075;BME280;68476;42.710;23.388;2023-06-22T07:01:40;96036.88;;;23.98;53.57
79075;BME280;68476;42.710;23.388;2023-06-22T07:04:06;96036.81;;;23.46;55.02
79075;BME280;68476;42.710;23.388;2023-06-22T07:06:31;96032.44;;;23.59;54.65
79075;BME280;68476;42.710;23.388;2023-06-22T07:08:58;96031.09;;;23.57;54.18
79075;BME280;68476;42.710;23.388;2023-06-22T07:11:23;96036.66;;;23.76;53.29
79075;BME280;68476;42.710;23.388;2023-06-22T07:13:49;96039.22;;;23.53;53.21
79075;BME280;68476;42.710;23.388;2023-06-22T07:16:14;96040.72;;;23.64;53.21
79075;BME280;68476;42.710;23.388;2023-06-22T07:18:40;96035.09;;;24.22;52.10
79075;BME280;68476;42.710;23.388;2023-06-22T07:21:05;96045.38;;;24.68;51.88
79075;BME280;68476;42.710;23.388;2023-06-22T07:23:32;96040.47;;;24.32;51.85
79075;BME280;68476;42.710;23.388;2023-06-22T07:25:57;96037.44;;;24.14;53.38
79075;BME280;68476;42.710;23.388;2023-06-22T07:28:27;96032.16;;;24.46;52.23
79075;BME280;68476;42.710;23.388;2023-06-22T07:30:52;96038.91;;;24.73;51.22
79075;BME280;68476;42.710;23.388;2023-06-22T07:33:18;96038.75;;;24.64;51.28
79075;BME280;68476;42.710;23.388;2023-06-22T07:35:43;96041.50;;;24.83;50.02
79075;BME280;68476;42.710;23.388;2023-06-22T07:38:09;96051.72;;;25.16;49.43
79075;BME280;68476;42.710;23.388;2023-06-22T07:40:35;96042.09;;;25.08;50.90
79075;BME280;68476;42.710;23.388;2023-06-22T07:43:00;96043.31;;;25.30;50.84
79075;BME280;68476;42.710;23.388;2023-06-22T07:45:26;96037.50;;;25.54;50.27
79075;BME280;68476;42.710;23.388;2023-06-22T07:47:51;96038.19;;;26.19;49.06
79075;BME280;68476;42.710;23.388;2023-06-22T07:50:16;96030.94;;;25.73;49.39
79075;BME280;68476;42.710;23.388;2023-06-22T07:52:42;96034.59;;;25.59;48.94
79075;BME280;68476;42.710;23.388;2023-06-22T07:55:07;96030.31;;;25.98;49.08
79075;BME280;68476;42.710;23.388;2023-06-22T07:57:33;96027.91;;;26.28;48.23
79075;BME280;68476;42.710;23.388;2023-06-22T08:00:00;96032.34;;;25.84;50.42
79075;BME280;68476;42.710;23.388;2023-06-22T08:02:26;96034.06;;;26.39;48.21
79075;BME280;68476;42.710;23.388;2023-06-22T08:04:51;96028.94;;;26.73;47.26
79075;BME280;68476;42.710;23.388;2023-06-22T08:07:17;96024.94;;;26.56;46.80
79075;BME280;68476;42.710;23.388;2023-06-22T08:09:47;96023.16;;;26.69;47.18
79075;BME280;68476;42.710;23.388;2023-06-22T08:12:13;96017.53;;;26.52;47.00
79075;BME280;68476;42.710;23.388;2023-06-22T08:14:38;96018.13;;;26.17;47.97
79075;BME280;68476;42.710;23.388;2023-06-22T08:17:04;96006.63;;;26.19;48.07
79075;BME280;68476;42.710;23.388;2023-06-22T08:19:30;96008.72;;;26.76;46.63
79075;BME280;68476;42.710;23.388;2023-06-22T08:21:56;96012.31;;;26.68;46.89
79075;BME280;68476;42.710;23.388;2023-06-22T08:24:21;96005.56;;;26.28;47.84
79075;BME280;68476;42.710;23.388;2023-06-22T08:26:47;96006.94;;;27.38;46.01
79075;BME280;68476;42.710;23.388;2023-06-22T08:29:12;95997.38;;;27.21;45.23
79075;BME280;68476;42.710;23.388;2023-06-22T08:31:38;95998.19;;;27.13;45.27
79075;BME280;68476;42.710;23.388;2023-06-22T08:34:03;95999.59;;;27.68;45.71
79075;BME280;68476;42.710;23.388;2023-06-22T08:36:28;95998.88;;;28.07;44.92
79075;BME280;68476;42.710;23.388;2023-06-22T08:38:57;96005.00;;;27.65;45.02
79075;BME280;68476;42.710;23.388;2023-06-22T08:41:26;96005.31;;;27.98;44.74
79075;BME280;68476;42.710;23.388;2023-06-22T08:43:52;96003.97;;;28.31;44.34
79075;BME280;68476;42.710;23.388;2023-06-22T08:46:18;96003.50;;;28.29;44.65
79075;BME280;68476;42.710;23.388;2023-06-22T08:48:47;95999.38;;;28.00;44.96
79075;BME280;68476;42.710;23.388;2023-06-22T08:51:12;96005.66;;;27.88;45.39
79075;BME280;68476;42.710;23.388;2023-06-22T08:53:39;95991.47;;;28.20;44.91
79075;BME280;68476;42.710;23.388;2023-06-22T08:56:04;95986.22;;;27.92;45.02
79075;BME280;68476;42.710;23.388;2023-06-22T08:58:30;95977.81;;;28.01;46.64
79075;BME280;68476;42.710;23.388;2023-06-22T09:00:55;95987.44;;;26.98;47.99
79075;BME280;68476;42.710;23.388;2023-06-22T09:03:20;95984.41;;;27.78;46.70
79075;BME280;68476;42.710;23.388;2023-06-22T09:05:46;95977.97;;;28.22;46.47
79075;BME280;68476;42.710;23.388;2023-06-22T09:08:11;95980.97;;;27.73;47.14
79075;BME280;68476;42.710;23.388;2023-06-22T09:10:37;95980.97;;;27.81;46.98
79075;BME280;68476;42.710;23.388;2023-06-22T09:13:02;95974.53;;;28.16;45.55
79075;BME280;68476;42.710;23.388;2023-06-22T09:15:27;95976.25;;;28.86;43.99
79075;BME280;68476;42.710;23.388;2023-06-22T09:17:53;95975.25;;;28.90;42.60
79075;BME280;68476;42.710;23.388;2023-06-22T09:20:19;95974.66;;;29.36;42.50
79075;BME280;68476;42.710;23.388;2023-06-22T09:22:45;95977.72;;;28.92;42.41
79075;BME280;68476;42.710;23.388;2023-06-22T09:25:10;95975.88;;;29.26;41.85
79075;BME280;68476;42.710;23.388;2023-06-22T09:27:36;95972.69;;;28.77;42.64
79075;BME280;68476;42.710;23.388;2023-06-22T09:30:01;95976.84;;;29.73;40.60
79075;BME280;68476;42.710;23.388;2023-06-22T09:32:28;95980.34;;;28.50;41.73
79075;BME280;68476;42.710;23.388;2023-06-22T09:34:54;95983.41;;;28.74;42.02
79075;BME280;68476;42.710;23.388;2023-06-22T09:37:19;95978.78;;;28.79;41.09
79075;BME280;68476;42.710;23.388;2023-06-22T09:39:44;95979.06;;;28.86;38.77
79075;BME280;68476;42.710;23.388;2023-06-22T09:42:10;95976.59;;;28.84;39.44
79075;BME280;68476;42.710;23.388;2023-06-22T09:44:36;95974.81;;;28.32;38.96
79075;BME280;68476;42.710;23.388;2023-06-22T09:47:02;95966.47;;;28.53;39.49
79075;BME280;68476;42.710;23.388;2023-06-22T09:49:27;95965.78;;;28.65;39.23
79075;BME280;68476;42.710;23.388;2023-06-22T09:51:52;95970.22;;;28.66;39.11
79075;BME280;68476;42.710;23.388;2023-06-22T09:54:18;95957.66;;;29.32;38.21
79075;BME280;68476;42.710;23.388;2023-06-22T09:56:43;95958.38;;;29.72;38.30
79075;BME280;68476;42.710;23.388;2023-06-22T09:59:09;95949.72;;;29.77;37.11
79075;BME280;68476;42.710;23.388;2023-06-22T10:01:34;95953.47;;;29.17;37.68
79075;BME280;68476;42.710;23.388;2023-06-22T10:04:00;95953.16;;;29.61;36.31
79075;BME280;68476;42.710;23.388;2023-06-22T10:06:25;95950.91;;;29.55;36.48
79075;BME280;68476;42.710;23.388;2023-06-22T10:08:51;95945.44;;;29.07;37.90
79075;BME280;68476;42.710;23.388;2023-06-22T10:11:16;95945.16;;;28.61;39.08
79075;BME280;68476;42.710;23.388;2023-06-22T10:13:42;95947.09;;;29.29;37.84
79075;BME280;68476;42.710;23.388;2023-06-22T10:16:08;95943.03;;;29.69;35.94
79075;BME280;68476;42.710;23.388;2023-06-22T10:18:33;95937.47;;;30.15;34.91
79075;BME280;68476;42.710;23.388;2023-06-22T10:20:59;95941.72;;;30.21;36.46
79075;BME280;68476;42.710;23.388;2023-06-22T10:23:24;95939.56;;;30.64;35.25
79075;BME280;68476;42.710;23.388;2023-06-22T10:25:50;95943.44;;;30.97;34.11
79075;BME280;68476;42.710;23.388;2023-06-22T10:28:15;95939.44;;;30.73;34.70
79075;BME280;68476;42.710;23.388;2023-06-22T10:30:41;95945.56;;;31.12;33.98
79075;BME280;68476;42.710;23.388;2023-06-22T10:33:09;95938.03;;;31.04;33.35
79075;BME280;68476;42.710;23.388;2023-06-22T10:35:35;95939.81;;;30.84;34.09
79075;BME280;68476;42.710;23.388;2023-06-22T10:38:02;95932.63;;;31.11;33.78
79075;BME280;68476;42.710;23.388;2023-06-22T10:40:28;95926.16;;;31.76;32.13
79075;BME280;68476;42.710;23.388;2023-06-22T10:42:53;95921.72;;;32.20;31.63
79075;BME280;68476;42.710;23.388;2023-06-22T10:45:19;95921.63;;;33.12;32.15
79075;BME280;68476;42.710;23.388;2023-06-22T10:47:44;95923.47;;;35.62;27.21
79075;BME280;68476;42.710;23.388;2023-06-22T10:50:10;95914.88;;;36.61;24.18
79075;BME280;68476;42.710;23.388;2023-06-22T10:52:36;95907.94;;;37.66;23.97
79075;BME280;68476;42.710;23.388;2023-06-22T10:55:01;95906.53;;;38.30;21.97
79075;BME280;68476;42.710;23.388;2023-06-22T10:57:26;95910.34;;;37.60;23.33
79075;BME280;68476;42.710;23.388;2023-06-22T10:59:52;95912.63;;;38.25;22.63
79075;BME280;68476;42.710;23.388;2023-06-22T11:02:17;95900.41;;;38.21;23.08
79075;BME280;68476;42.710;23.388;2023-06-22T11:04:43;95908.63;;;38.69;22.38
79075;BME280;68476;42.710;23.388;2023-06-22T11:07:09;95912.31;;;38.77;22.22
79075;BME280;68476;42.710;23.388;2023-06-22T11:09:34;95906.22;;;38.72;22.09
79075;BME280;68476;42.710;23.388;2023-06-22T11:12:00;95904.81;;;39.92;21.17
79075;BME280;68476;42.710;23.388;2023-06-22T11:14:25;95903.41;;;38.86;21.72
79075;BME280;68476;42.710;23.388;2023-06-22T11:16:51;95903.69;;;37.38;23.57
79075;BME280;68476;42.710;23.388;2023-06-22T11:19:17;95903.47;;;40.22;21.01
79075;BME280;68476;42.710;23.388;2023-06-22T11:21:42;95892.78;;;37.44;24.03
79075;BME280;68476;42.710;23.388;2023-06-22T11:24:08;95894.13;;;37.72;23.23
79075;BME280;68476;42.710;23.388;2023-06-22T11:26:33;95888.94;;;37.88;22.91
79075;BME280;68476;42.710;23.388;2023-06-22T11:28:59;95888.22;;;39.58;20.62
79075;BME280;68476;42.710;23.388;2023-06-22T11:31:24;95884.22;;;38.58;22.30
79075;BME280;68476;42.710;23.388;2023-06-22T11:33:50;95880.84;;;36.64;24.37
79075;BME280;68476;42.710;23.388;2023-06-22T11:36:15;95877.63;;;39.62;20.26
79075;BME280;68476;42.710;23.388;2023-06-22T11:38:41;95885.84;;;39.38;20.68
79075;BME280;68476;42.710;23.388;2023-06-22T11:41:08;95887.28;;;39.97;20.22
79075;BME280;68476;42.710;23.388;2023-06-22T11:43:33;95879.63;;;39.61;20.38
79075;BME280;68476;42.710;23.388;2023-06-22T11:46:02;95872.56;;;36.93;23.59
79075;BME280;68476;42.710;23.388;2023-06-22T11:48:28;95874.06;;;39.04;21.21
79075;BME280;68476;42.710;23.388;2023-06-22T11:50:54;95859.50;;;40.01;19.81
79075;BME280;68476;42.710;23.388;2023-06-22T11:53:21;95865.38;;;39.72;19.89
79075;BME280;68476;42.710;23.388;2023-06-22T11:55:47;95859.75;;;39.43;20.66
79075;BME280;68476;42.710;23.388;2023-06-22T11:58:12;95865.34;;;35.79;26.34
79075;BME280;68476;42.710;23.388;2023-06-22T12:00:38;95871.03;;;35.18;26.45
79075;BME280;68476;42.710;23.388;2023-06-22T12:03:03;95870.28;;;34.44;27.48
79075;BME280;68476;42.710;23.388;2023-06-22T12:05:29;95868.72;;;33.84;29.82
79075;BME280;68476;42.710;23.388;2023-06-22T12:07:54;95869.06;;;33.83;31.25
79075;BME280;68476;42.710;23.388;2023-06-22T12:10:21;95868.00;;;33.48;32.92
79075;BME280;68476;42.710;23.388;2023-06-22T12:12:47;95867.59;;;31.98;34.18
79075;BME280;68476;42.710;23.388;2023-06-22T12:15:12;95868.44;;;30.64;36.27
79075;BME280;68476;42.710;23.388;2023-06-22T12:17:38;95876.25;;;29.87;38.91
79075;BME280;68476;42.710;23.388;2023-06-22T12:20:04;95870.16;;;29.30;39.86
79075;BME280;68476;42.710;23.388;2023-06-22T12:22:33;95874.13;;;28.87;40.99
79075;BME280;68476;42.710;23.388;2023-06-22T12:24:59;95877.13;;;28.82;42.40
79075;BME280;68476;42.710;23.388;2023-06-22T12:27:24;95882.28;;;28.71;42.97
79075;BME280;68476;42.710;23.388;2023-06-22T12:29:50;95893.75;;;28.57;43.54
79075;BME280;68476;42.710;23.388;2023-06-22T12:32:16;95901.69;;;28.55;44.45
79075;BME280;68476;42.710;23.388;2023-06-22T12:34:42;95900.81;;;28.63;45.95
79075;BME280;68476;42.710;23.388;2023-06-22T12:37:08;95907.28;;;28.55;43.64
79075;BME280;68476;42.710;23.388;2023-06-22T12:39:34;95929.69;;;28.07;46.09
79075;BME280;68476;42.710;23.388;2023-06-22T12:41:59;95933.47;;;26.39;51.96
79075;BME280;68476;42.710;23.388;2023-06-22T12:44:25;95918.81;;;26.34;51.18
79075;BME280;68476;42.710;23.388;2023-06-22T12:46:50;95930.97;;;25.75;51.52
79075;BME280;68476;42.710;23.388;2023-06-22T12:49:15;95928.19;;;25.75;50.31
79075;BME280;68476;42.710;23.388;2023-06-22T12:51:42;95944.81;;;25.20;51.24
79075;BME280;68476;42.710;23.388;2023-06-22T12:54:07;95954.94;;;25.53;50.69
79075;BME280;68476;42.710;23.388;2023-06-22T12:56:33;95953.28;;;26.20;49.13